Airfield :
LOGIN :

Register | Disclaimer

   EN    FR    IT 

 










Legend :    VFR   Marginal VFR   IFR   Intensive IFR   Very Intensive IFR
Visi :
Ceiling :
>= 8 km
>= 3000ft
5 to 8 km
1000 to 3000 ft
1500m to 5 km
500 to 1000 ft
800 to 1500m
200 to 500 ft
< 800m
< 200 ft
Symbols :   Thunderstorms  Fog  Heavy snow  Heavy precipitations  Wind > 20 kt
SIGMETs :     Misc.  Thunderstorms  Icing  Turbulence  Mountain Waves  Volcanic Ashes






- Airport Elevation : 3381 ft
- IATA code : KYA


LTAN - Konya AB

CURRENT METAR :
  • 180250Z 01016KT 9999 SCT040 BKN090 M01/M03 Q1019 BECMG TL0350 3500 BR

EXPIRED METARs :
  • 180150Z 01011KT 9999 SCT040 BKN100 M00/M04 Q1019 BECMG TL0250 3500 BR
  • 180050Z 34007KT 9999 SCT040 BKN100 01/M04 Q1019 NOSIG

TAF AMD TAF LTAN
Valid from the 18 at 03:00 until the 18 at 12:00 UTC


180303Z 1803/1812 36009KT 9999 SCT040 BKN100



MET'MAP, your aeronautical weather chart ! - Copyright ORBIFLY December 2007 - Disclaimer

ORBIFLY MET'MAP TEAM :

Programming & Development : Alexandra Zaïnal
Concept & original design : Baudouin d'Aumeries
Assistance for programming : Marc-Olivier Méhu
Technical & hardware support : Manuel Goepfert

Contact : metmap@orbifly.com




SOURCES & CREDITS :

   NOAA